Time;durP1;ratioP1;P1;durP2;ratioP2;P2;SDS_P1;SDS_P2;PMS_P1;PMS_P2;Temp;Humidity;BMP_temperature;BMP_pressure;BME280_temperature;BME280_humidity;BME280_pressure;Samples;Min_cycle;Max_cycle;Signal;HPM_P1;HPM_P2
2022/11/22 00:02:17;;;;;;;13.90;10.80;;;;;;;0.58;100.00;95572.46;105173;1306;22460;-76
2022/11/22 00:04:48;;;;;;;13.50;10.80;;;;;;;0.53;100.00;95579.27;105304;1297;25372;-76
2022/11/22 00:07:20;;;;;;;14.00;9.30;;;;;;;0.47;100.00;95579.09;104443;1305;1172444;-76
2022/11/22 00:09:51;;;;;;;14.20;10.10;;;;;;;0.43;100.00;95581.16;105260;1296;25254;-76
2022/11/22 00:12:22;;;;;;;12.60;9.90;;;;;;;0.43;100.00;95579.70;105282;1294;22468;-76
2022/11/22 00:14:53;;;;;;;14.40;10.00;;;;;;;0.42;100.00;95571.98;105275;1303;22460;-76
2022/11/22 00:17:24;;;;;;;14.30;10.30;;;;;;;0.43;100.00;95570.88;105325;1292;22514;-77
2022/11/22 00:19:56;;;;;;;12.60;9.40;;;;;;;0.43;100.00;95567.77;105324;1303;25340;-76
2022/11/22 00:22:27;;;;;;;11.00;7.90;;;;;;;0.44;100.00;95567.67;105294;1294;22869;-77
2022/11/22 00:24:58;;;;;;;11.10;8.00;;;;;;;0.38;100.00;95568.52;105460;1295;22461;-77
2022/11/22 00:27:30;;;;;;;11.30;8.50;;;;;;;0.32;100.00;95565.11;105354;1294;22954;-77
2022/11/22 00:30:01;;;;;;;11.50;7.90;;;;;;;0.28;100.00;95561.91;105305;1295;22475;-77
2022/11/22 00:32:32;;;;;;;11.60;8.70;;;;;;;0.27;100.00;95562.77;105305;1302;22497;-77
2022/11/22 00:35:03;;;;;;;11.00;7.70;;;;;;;0.26;100.00;95567.45;105233;1303;22500;-77
2022/11/22 00:37:35;;;;;;;11.50;8.20;;;;;;;0.28;100.00;95562.95;105286;1307;23809;-76
2022/11/22 00:40:08;;;;;;;11.60;8.30;;;;;;;0.29;100.00;95566.42;105279;1306;22467;-77
2022/11/22 00:42:42;;;;;;;14.50;9.50;;;;;;;0.27;100.00;95570.59;105271;1294;22511;-76
2022/11/22 00:45:14;;;;;;;14.00;9.60;;;;;;;0.26;100.00;95568.14;105236;1288;22473;-76
2022/11/22 00:47:45;;;;;;;11.30;8.40;;;;;;;0.29;100.00;95565.98;105256;1303;24341;-77
2022/11/22 00:50:16;;;;;;;13.00;9.10;;;;;;;0.31;100.00;95562.90;105184;1304;22554;-76
2022/11/22 00:52:48;;;;;;;12.80;9.10;;;;;;;0.31;100.00;95567.02;105236;1306;22483;-76
2022/11/22 00:55:19;;;;;;;15.60;9.90;;;;;;;0.28;100.00;95568.17;105196;1305;25200;-76
2022/11/22 00:57:50;;;;;;;14.10;10.10;;;;;;;0.36;100.00;95565.98;105328;1305;22469;-76
2022/11/22 01:00:22;;;;;;;13.80;9.50;;;;;;;0.44;100.00;95568.50;105296;1304;25216;-76
2022/11/22 01:02:53;;;;;;;11.40;8.10;;;;;;;0.45;100.00;95576.92;105275;1306;22457;-76
2022/11/22 01:05:24;;;;;;;13.20;9.20;;;;;;;0.44;100.00;95578.16;105226;1298;22481;-76
2022/11/22 01:07:56;;;;;;;12.40;8.20;;;;;;;0.45;100.00;95578.95;105209;1289;22599;-76
2022/11/22 01:10:27;;;;;;;11.80;8.40;;;;;;;0.48;100.00;95584.88;105145;1307;22481;-76
2022/11/22 01:12:58;;;;;;;10.30;7.70;;;;;;;0.43;100.00;95587.62;105241;1294;25345;-76
2022/11/22 01:15:30;;;;;;;10.00;7.10;;;;;;;0.32;100.00;95588.56;105167;1296;25376;-76
2022/11/22 01:18:01;;;;;;;9.50;6.90;;;;;;;0.21;100.00;95587.92;105157;1306;22488;-76
2022/11/22 01:20:33;;;;;;;11.10;8.00;;;;;;;0.06;100.00;95587.69;105286;1306;22591;-76
2022/11/22 01:23:04;;;;;;;12.20;8.70;;;;;;;-0.07;100.00;95591.02;105217;1305;22514;-76
2022/11/22 01:25:35;;;;;;;12.60;9.40;;;;;;;-0.17;100.00;95592.38;105315;1288;22462;-76
2022/11/22 01:28:07;;;;;;;11.30;8.30;;;;;;;-0.23;100.00;95595.29;105332;1299;25390;-76
2022/11/22 01:30:40;;;;;;;12.00;8.80;;;;;;;-0.27;100.00;95599.09;105265;1307;22479;-76
2022/11/22 01:33:15;;;;;;;12.50;8.60;;;;;;;-0.32;100.00;95601.39;105269;1300;22456;-76
2022/11/22 01:35:46;;;;;;;8.40;5.80;;;;;;;-0.40;100.00;95606.72;105115;1284;23826;-76
2022/11/22 01:38:18;;;;;;;8.00;6.20;;;;;;;-0.48;100.00;95601.00;105296;1304;22515;-76
2022/11/22 01:40:51;;;;;;;9.50;6.50;;;;;;;-0.48;100.00;95600.48;105325;1287;22852;-76
2022/11/22 01:43:27;;;;;;;8.50;6.10;;;;;;;-0.43;100.00;95606.36;105253;1307;22481;-76
2022/11/22 01:46:01;;;;;;;8.40;6.30;;;;;;;-0.42;100.00;95605.75;105211;1309;22533;-76
2022/11/22 01:48:40;;;;;;;12.70;9.20;;;;;;;-0.47;100.00;95606.33;105301;1307;22521;-76
2022/11/22 01:51:18;;;;;;;8.80;6.30;;;;;;;-0.41;100.00;95609.42;105209;1299;25394;-76
2022/11/22 01:53:52;;;;;;;9.70;6.40;;;;;;;-0.33;100.00;95614.80;105218;1295;23440;-76
2022/11/22 01:56:24;;;;;;;8.60;5.70;;;;;;;-0.28;100.00;95620.22;105282;1294;24988;-76
2022/11/22 01:59:00;;;;;;;10.30;6.90;;;;;;;-0.25;100.00;95619.90;105298;1304;25269;-76
2022/11/22 02:01:32;;;;;;;8.70;6.40;;;;;;;-0.15;100.00;95612.31;105221;1306;22516;-77
2022/11/22 02:04:06;;;;;;;12.70;8.90;;;;;;;-0.08;100.00;95618.85;105282;1303;22458;-76
2022/11/22 02:06:43;;;;;;;11.70;9.00;;;;;;;-0.03;100.00;95610.84;105421;1303;22687;-77
2022/11/22 02:09:15;;;;;;;11.70;8.10;;;;;;;0.02;100.00;95603.57;105332;1295;22487;-76
2022/11/22 02:11:50;;;;;;;11.70;6.70;;;;;;;0.05;100.00;95598.05;105347;1295;25375;-76
2022/11/22 02:14:27;;;;;;;9.70;7.10;;;;;;;0.01;100.00;95591.27;105440;1285;25244;-76
2022/11/22 02:16:58;;;;;;;9.40;6.60;;;;;;;-0.00;100.00;95591.51;105378;1280;22640;-76
2022/11/22 02:19:39;;;;;;;9.50;6.90;;;;;;;-0.02;100.00;95593.23;105286;1304;22464;-76
2022/11/22 02:22:25;;;;;;;10.80;7.70;;;;;;;-0.07;100.00;95592.28;105332;1295;22509;-76
2022/11/22 02:25:02;;;;;;;13.50;10.50;;;;;;;-0.05;100.00;95585.80;105246;1304;23491;-76
2022/11/22 02:27:34;;;;;;;12.00;8.60;;;;;;;-0.03;100.00;95579.98;105263;1303;22458;-77
2022/11/22 02:30:06;;;;;;;11.20;8.30;;;;;;;-0.05;100.00;95575.90;105288;1304;25276;-76
2022/11/22 02:32:38;;;;;;;11.20;8.10;;;;;;;-0.04;100.00;95573.67;105252;1300;25367;-77
2022/11/22 02:35:19;;;;;;;14.20;10.10;;;;;;;-0.07;100.00;95569.09;105247;1304;22514;-76
2022/11/22 02:37:52;;;;;;;13.40;9.40;;;;;;;-0.11;100.00;95564.09;105285;1304;22532;-76
2022/11/22 02:40:26;;;;;;;12.50;9.00;;;;;;;-0.13;100.00;95561.23;105318;1302;22987;-76
2022/11/22 02:43:02;;;;;;;13.50;9.00;;;;;;;-0.13;100.00;95560.55;105277;1303;22465;-76
2022/11/22 02:45:34;;;;;;;14.70;10.30;;;;;;;-0.07;100.00;95559.92;105144;1289;22466;-76
2022/11/22 02:48:11;;;;;;;14.80;9.70;;;;;;;-0.02;100.00;95562.87;105183;1287;22451;-76
2022/11/22 02:50:42;;;;;;;12.70;9.30;;;;;;;-0.04;100.00;95564.45;105296;1281;24263;-76
2022/11/22 02:53:14;;;;;;;13.50;10.00;;;;;;;-0.10;100.00;95567.17;105295;1304;22470;-77
2022/11/22 02:55:46;;;;;;;12.80;9.40;;;;;;;-0.15;100.00;95565.07;105134;1303;23494;-76
2022/11/22 02:58:17;;;;;;;12.60;9.20;;;;;;;-0.24;100.00;95562.04;105266;1304;22704;-76
2022/11/22 03:00:48;;;;;;;11.30;8.10;;;;;;;-0.41;100.00;95560.20;105274;1304;23050;-76
2022/11/22 03:03:25;;;;;;;11.50;8.40;;;;;;;-0.46;100.00;95561.73;105261;1296;22648;-76
2022/11/22 03:05:56;;;;;;;11.90;8.90;;;;;;;-0.46;100.00;95561.50;105258;1304;22479;-76
2022/11/22 03:08:27;;;;;;;16.60;11.40;;;;;;;-0.44;100.00;95559.88;105241;1306;25296;-76
2022/11/22 03:11:00;;;;;;;16.60;11.20;;;;;;;-0.41;100.00;95558.75;105246;1284;24221;-76
2022/11/22 03:13:32;;;;;;;14.60;11.20;;;;;;;-0.41;100.00;95550.98;105257;1304;25368;-76
2022/11/22 03:16:03;;;;;;;14.30;10.70;;;;;;;-0.46;100.00;95548.77;105236;1285;24250;-76
2022/11/22 03:18:36;;;;;;;15.40;11.10;;;;;;;-0.51;100.00;95548.73;105317;1301;22475;-77
2022/11/22 03:21:09;;;;;;;15.20;10.90;;;;;;;-0.51;100.00;95543.63;105288;1289;22889;-76
2022/11/22 03:23:41;;;;;;;12.40;9.00;;;;;;;-0.46;100.00;95542.20;105271;1304;22685;-76
2022/11/22 03:26:13;;;;;;;14.20;9.90;;;;;;;-0.48;100.00;95545.23;105390;1289;24254;-76
2022/11/22 03:28:44;;;;;;;14.50;10.40;;;;;;;-0.48;100.00;95547.79;105317;1302;22498;-76
2022/11/22 03:31:16;;;;;;;14.70;11.30;;;;;;;-0.48;100.00;95554.52;105450;1289;22569;-76
2022/11/22 03:33:47;;;;;;;14.20;10.00;;;;;;;-0.48;100.00;95552.48;105282;1303;22457;-76
2022/11/22 03:36:18;;;;;;;12.80;9.10;;;;;;;-0.48;100.00;95554.45;105171;1282;22468;-76
2022/11/22 03:38:52;;;;;;;14.70;9.70;;;;;;;-0.51;100.00;95557.54;105260;1294;22474;-76
2022/11/22 03:41:23;;;;;;;17.70;10.30;;;;;;;-0.58;100.00;95554.08;105274;1297;22460;-76
2022/11/22 03:43:54;;;;;;;15.10;10.50;;;;;;;-0.64;100.00;95555.07;105284;1304;24228;-76
2022/11/22 03:46:26;;;;;;;20.40;12.60;;;;;;;-0.64;100.00;95551.10;105446;1303;22621;-76
2022/11/22 03:48:57;;;;;;;16.50;11.30;;;;;;;-0.60;100.00;95550.17;105475;1297;22708;-76
2022/11/22 03:51:29;;;;;;;17.80;12.30;;;;;;;-0.55;100.00;95548.71;105324;1281;22791;-76
2022/11/22 03:54:01;;;;;;;19.00;12.70;;;;;;;-0.51;100.00;95550.71;105303;1303;22450;-76
2022/11/22 03:56:32;;;;;;;15.00;11.00;;;;;;;-0.59;100.00;95550.88;105337;1296;22947;-76
2022/11/22 03:59:04;;;;;;;14.40;9.00;;;;;;;-0.71;100.00;95550.83;105354;1303;22599;-76
2022/11/22 04:01:35;;;;;;;16.20;11.20;;;;;;;-0.82;100.00;95548.55;105357;1299;22736;-76
2022/11/22 04:04:09;;;;;;;17.60;12.00;;;;;;;-0.86;100.00;95548.81;105198;1289;23241;-76
2022/11/22 04:06:41;;;;;;;15.20;10.60;;;;;;;-0.87;100.00;95551.52;105291;1304;23771;-76
2022/11/22 04:09:13;;;;;;;16.70;12.00;;;;;;;-0.81;100.00;95552.52;105275;1304;22473;-76
2022/11/22 04:11:44;;;;;;;16.90;12.30;;;;;;;-0.74;100.00;95553.80;105287;1304;22477;-76
2022/11/22 04:17:04;;;;;;;20.40;14.90;;;;;;;-0.68;100.00;95554.64;105250;1304;22469;-76
2022/11/22 04:19:36;;;;;;;20.00;14.70;;;;;;;-0.62;100.00;95557.44;105268;1298;22522;-76
2022/11/22 04:22:08;;;;;;;22.40;16.10;;;;;;;-0.60;100.00;95550.34;105259;1281;22651;-76
2022/11/22 04:27:28;;;;;;;21.80;16.20;;;;;;;-0.66;100.00;95545.20;105483;1296;22515;-76
2022/11/22 04:30:00;;;;;;;24.10;17.00;;;;;;;-0.69;100.00;95547.59;105302;1289;22484;-76
2022/11/22 04:32:47;;;;;;;24.20;15.70;;;;;;;-0.73;100.00;95545.36;105271;1288;22604;-76
2022/11/22 04:35:18;;;;;;;23.10;15.10;;;;;;;-0.72;100.00;95544.08;105244;1303;22496;-76
2022/11/22 04:37:53;;;;;;;25.20;16.30;;;;;;;-0.68;100.00;95545.80;105293;1304;22629;-76
2022/11/22 04:40:24;;;;;;;23.00;16.20;;;;;;;-0.67;100.00;95544.40;105301;1289;22467;-76
2022/11/22 04:45:45;;;;;;;19.80;14.50;;;;;;;-0.64;100.00;95536.13;105202;1278;22490;-76
2022/11/22 04:48:17;;;;;;;21.20;14.30;;;;;;;-0.61;100.00;95534.19;105230;1293;22471;-76
2022/11/22 04:53:37;;;;;;;25.10;16.10;;;;;;;-0.55;100.00;95528.19;105291;1276;22507;-76
2022/11/22 04:56:09;;;;;;;23.40;15.30;;;;;;;-0.54;100.00;95530.05;105238;1297;24314;-76
2022/11/22 04:58:40;;;;;;;25.10;15.50;;;;;;;-0.56;100.00;95532.56;105305;1304;22493;-76
2022/11/22 05:01:12;;;;;;;23.90;15.20;;;;;;;-0.56;100.00;95528.40;105301;1297;25214;-76
2022/11/22 05:03:43;;;;;;;22.90;16.40;;;;;;;-0.57;100.00;95529.29;105242;1294;22511;-76
2022/11/22 05:06:15;;;;;;;25.30;15.20;;;;;;;-0.58;100.00;95528.44;105312;1295;24262;-76
2022/11/22 05:08:46;;;;;;;21.50;14.70;;;;;;;-0.56;100.00;95527.92;105346;1303;23833;-76
2022/11/22 05:11:18;;;;;;;23.50;16.00;;;;;;;-0.60;100.00;95532.95;105312;1295;22522;-76
2022/11/22 05:13:49;;;;;;;23.60;15.10;;;;;;;-0.58;100.00;95533.28;105278;1285;23867;-76
2022/11/22 05:16:20;;;;;;;23.90;15.70;;;;;;;-0.55;100.00;95532.48;105242;1304;25547;-77
2022/11/22 05:18:59;;;;;;;24.40;16.10;;;;;;;-0.60;100.00;95531.96;105293;1289;22468;-76
2022/11/22 05:21:34;;;;;;;23.90;16.00;;;;;;;-0.64;100.00;95535.18;105294;1282;24270;-76
2022/11/22 05:24:06;;;;;;;21.10;16.30;;;;;;;-0.70;100.00;95537.47;105221;1303;22767;-76
2022/11/22 05:26:38;;;;;;;22.70;16.50;;;;;;;-0.74;100.00;95536.91;105335;1298;22838;-76
2022/11/22 05:29:10;;;;;;;19.90;13.90;;;;;;;-0.80;100.00;95535.16;105280;1296;22524;-76
2022/11/22 05:31:45;;;;;;;19.40;13.30;;;;;;;-0.82;100.00;95532.05;105292;1305;22544;-76
2022/11/22 05:34:16;;;;;;;22.20;14.40;;;;;;;-0.74;100.00;95538.06;105260;1291;22533;-76
2022/11/22 05:36:48;;;;;;;22.00;14.50;;;;;;;-0.75;100.00;95534.36;105257;1288;22608;-76
2022/11/22 05:39:19;;;;;;;21.80;14.80;;;;;;;-0.82;100.00;95529.92;105280;1303;22519;-76
2022/11/22 05:41:55;;;;;;;21.70;14.70;;;;;;;-0.84;100.00;95530.05;105306;1301;25257;-76
2022/11/22 05:44:27;;;;;;;20.20;13.30;;;;;;;-0.84;100.00;95532.58;105293;1289;25416;-76
2022/11/22 05:46:58;;;;;;;19.80;14.20;;;;;;;-0.79;100.00;95535.73;105361;1302;22637;-76
2022/11/22 05:49:29;;;;;;;21.10;13.90;;;;;;;-0.79;100.00;95536.11;105309;1303;24327;-76
2022/11/22 05:52:01;;;;;;;18.20;12.00;;;;;;;-0.86;100.00;95534.32;105423;1303;22607;-76
2022/11/22 05:54:33;;;;;;;18.70;13.30;;;;;;;-0.85;100.00;95533.66;105242;1304;22449;-76
2022/11/22 05:57:04;;;;;;;17.30;12.40;;;;;;;-0.80;100.00;95529.02;105329;1288;24264;-76
2022/11/22 05:59:35;;;;;;;18.40;12.10;;;;;;;-0.82;100.00;95531.70;105297;1288;22493;-76
2022/11/22 06:02:11;;;;;;;19.80;13.30;;;;;;;-0.84;100.00;95535.41;105301;1288;24256;-76
2022/11/22 06:04:45;;;;;;;21.10;14.80;;;;;;;-0.81;100.00;95536.91;105262;1303;22460;-76
2022/11/22 06:07:16;;;;;;;19.00;14.20;;;;;;;-0.83;100.00;95541.88;105303;1304;22477;-76
2022/11/22 06:09:48;;;;;;;18.90;13.40;;;;;;;-0.83;100.00;95540.25;105251;1306;22482;-76
2022/11/22 06:12:19;;;;;;;17.40;11.70;;;;;;;-0.85;100.00;95539.79;105298;1305;22599;-76
2022/11/22 06:14:51;;;;;;;22.90;15.20;;;;;;;-0.85;100.00;95538.39;105273;1288;22473;-76
2022/11/22 06:17:22;;;;;;;20.90;15.10;;;;;;;-0.82;100.00;95540.75;105289;1304;25378;-76
2022/11/22 06:19:54;;;;;;;19.40;14.40;;;;;;;-0.82;100.00;95541.31;105233;1304;22621;-76
2022/11/22 06:22:25;;;;;;;23.30;15.00;;;;;;;-0.83;100.00;95544.58;105228;1298;24212;-76
2022/11/22 06:24:57;;;;;;;23.60;16.20;;;;;;;-0.85;100.00;95544.16;105224;1282;22478;-76
2022/11/22 06:27:28;;;;;;;21.10;14.10;;;;;;;-0.85;100.00;95546.77;105327;1294;22556;-76
2022/11/22 06:29:59;;;;;;;20.80;15.50;;;;;;;-0.86;100.00;95547.84;105317;1296;22469;-76
2022/11/22 06:32:34;;;;;;;21.70;15.10;;;;;;;-0.85;100.00;95550.20;105187;1295;22510;-76
2022/11/22 06:35:07;;;;;;;23.10;15.70;;;;;;;-0.76;100.00;95552.76;105247;1303;22682;-76
2022/11/22 06:37:38;;;;;;;21.30;14.40;;;;;;;-0.68;100.00;95555.92;105324;1304;24326;-76
2022/11/22 06:40:11;;;;;;;23.10;16.50;;;;;;;-0.54;100.00;95550.61;105246;1289;22465;-76
2022/11/22 06:42:43;;;;;;;19.70;15.40;;;;;;;-0.30;100.00;95553.98;105319;1304;22584;-76
2022/11/22 06:45:15;;;;;;;21.60;15.10;;;;;;;-0.02;100.00;95554.48;105372;1303;25242;-76
2022/11/22 06:47:46;;;;;;;21.60;16.40;;;;;;;0.25;100.00;95559.78;105310;1301;25378;-76
2022/11/22 06:50:17;;;;;;;20.80;15.90;;;;;;;0.67;100.00;95558.02;105460;1300;25371;-76
2022/11/22 06:52:53;;;;;;;21.40;16.20;;;;;;;1.10;100.00;95563.34;105515;1295;22489;-76
2022/11/22 06:55:27;;;;;;;20.00;16.70;;;;;;;1.54;100.00;95563.54;105457;1303;35667;-76
2022/11/22 06:57:58;;;;;;;19.20;15.70;;;;;;;1.97;100.00;95563.56;105445;1295;22487;-76
2022/11/22 07:00:29;;;;;;;17.60;13.10;;;;;;;1.98;99.95;95563.26;105272;1303;25268;-77
2022/11/22 07:03:00;;;;;;;17.10;13.90;;;;;;;2.07;99.44;95559.35;105337;1287;22507;-77
2022/11/22 07:05:32;;;;;;;17.00;13.80;;;;;;;2.32;99.01;95563.45;105209;1295;22510;-77
2022/11/22 07:08:03;;;;;;;18.50;13.90;;;;;;;2.47;98.00;95569.89;105252;1298;22763;-77
2022/11/22 07:10:36;;;;;;;17.80;13.40;;;;;;;2.33;96.86;95562.67;105292;1288;22581;-76
2022/11/22 07:13:08;;;;;;;17.50;13.90;;;;;;;2.34;97.03;95562.47;105284;1296;22571;-76
2022/11/22 07:15:39;;;;;;;17.30;13.40;;;;;;;2.40;96.41;95560.95;105253;1305;22510;-76
2022/11/22 07:18:11;;;;;;;18.50;13.60;;;;;;;2.33;95.78;95563.30;105288;1304;24234;-77
2022/11/22 07:20:45;;;;;;;17.80;12.80;;;;;;;2.43;95.37;95569.50;105286;1296;25254;-77
2022/11/22 07:23:17;;;;;;;19.10;15.30;;;;;;;2.46;94.48;95572.14;105281;1304;22542;-77
2022/11/22 07:25:49;;;;;;;17.80;13.60;;;;;;;2.52;94.08;95576.93;105285;1303;22476;-77
2022/11/22 07:28:20;;;;;;;16.50;13.70;;;;;;;2.66;93.99;95581.77;105294;1294;22928;-77
2022/11/22 07:30:52;;;;;;;19.80;14.30;;;;;;;3.12;94.43;95579.95;105298;1296;22464;-77
2022/11/22 07:33:26;;;;;;;16.60;13.30;;;;;;;3.37;93.41;95582.09;105298;1278;22940;-76
2022/11/22 07:36:03;;;;;;;16.40;13.10;;;;;;;3.51;91.92;95579.57;105252;1304;22722;-77
2022/11/22 07:38:35;;;;;;;17.90;14.60;;;;;;;3.26;90.82;95586.03;105311;1303;22464;-76
2022/11/22 07:41:07;;;;;;;17.40;12.60;;;;;;;3.20;91.09;95587.31;105236;1281;22499;-77
2022/11/22 07:43:39;;;;;;;20.00;13.00;;;;;;;3.23;90.33;95574.71;105291;1281;24203;-77
2022/11/22 07:46:18;;;;;;;20.30;14.00;;;;;;;2.87;89.33;95568.54;105275;1301;22520;-77
2022/11/22 07:48:50;;;;;;;17.60;11.70;;;;;;;2.84;89.91;95560.58;105336;1295;22517;-77
2022/11/22 07:51:22;;;;;;;17.70;13.10;;;;;;;2.69;89.10;95561.54;105291;1303;22469;-77
2022/11/22 07:53:54;;;;;;;17.70;12.20;;;;;;;2.61;89.32;95556.98;105286;1278;23288;-76
2022/11/22 07:56:25;;;;;;;18.10;11.60;;;;;;;2.60;89.27;95542.91;105184;1297;22510;-77
2022/11/22 07:58:57;;;;;;;18.10;11.60;;;;;;;2.54;89.09;95553.56;105200;1306;22472;-77
2022/11/22 08:01:28;;;;;;;17.30;11.60;;;;;;;2.58;89.48;95560.70;105206;1297;25360;-77
2022/11/22 08:03:59;;;;;;;18.80;12.90;;;;;;;2.58;89.73;95569.85;105255;1291;22551;-76
2022/11/22 08:06:31;;;;;;;14.70;9.40;;;;;;;2.70;90.30;95562.27;105290;1304;22455;-77
2022/11/22 08:09:02;;;;;;;17.80;11.80;;;;;;;2.59;88.94;95556.67;105324;1289;22632;-77
2022/11/22 08:11:35;;;;;;;14.80;8.20;;;;;;;2.54;89.47;95556.74;105287;1287;22487;-77
2022/11/22 08:14:06;;;;;;;19.40;12.70;;;;;;;2.41;88.86;95563.83;105318;1296;22475;-77
2022/11/22 08:16:37;;;;;;;19.00;14.20;;;;;;;2.31;89.69;95565.02;105313;1304;25334;-77
2022/11/22 08:19:08;;;;;;;17.30;12.90;;;;;;;2.41;90.42;95563.77;105303;1288;22483;-77
2022/11/22 08:21:40;;;;;;;19.10;12.70;;;;;;;2.72;91.28;95562.08;105267;1276;22474;-77
2022/11/22 08:24:11;;;;;;;16.90;12.70;;;;;;;2.94;91.42;95565.70;105236;1297;22981;-77
2022/11/22 08:26:43;;;;;;;15.20;10.40;;;;;;;3.04;90.62;95566.26;105294;1303;24236;-77
2022/11/22 08:29:17;;;;;;;17.60;12.60;;;;;;;3.04;90.38;95571.38;105286;1288;23374;-77
2022/11/22 08:31:48;;;;;;;18.90;13.00;;;;;;;3.14;90.03;95576.31;105306;1275;22517;-77
2022/11/22 08:34:19;;;;;;;19.10;13.60;;;;;;;3.10;89.78;95579.11;105246;1282;27510;-77
2022/11/22 08:36:51;;;;;;;20.70;13.60;;;;;;;3.00;89.37;95577.75;105323;1302;22637;-77
2022/11/22 08:39:22;;;;;;;19.80;14.20;;;;;;;2.87;89.89;95576.60;105317;1297;25392;-77
2022/11/22 08:41:53;;;;;;;20.20;12.20;;;;;;;2.79;89.54;95576.82;105290;1296;22481;-77
2022/11/22 08:44:25;;;;;;;17.10;10.60;;;;;;;2.56;89.14;95583.80;105230;1282;24375;-77
2022/11/22 08:46:58;;;;;;;19.50;11.80;;;;;;;2.37;89.12;95584.89;105307;1304;22848;-77
2022/11/22 08:49:30;;;;;;;16.50;10.30;;;;;;;2.20;89.07;95575.92;105258;1280;22464;-77
2022/11/22 08:52:01;;;;;;;16.40;10.60;;;;;;;2.06;89.44;95572.78;105288;1304;22512;-77
2022/11/22 08:54:33;;;;;;;18.00;11.60;;;;;;;2.06;90.23;95573.67;105182;1296;22833;-77
2022/11/22 08:57:04;;;;;;;20.10;10.10;;;;;;;2.18;90.83;95578.89;105339;1278;23634;-77
2022/11/22 08:59:35;;;;;;;17.60;10.90;;;;;;;2.17;90.44;95581.23;105253;1304;22484;-77
2022/11/22 09:02:07;;;;;;;15.20;10.10;;;;;;;2.14;90.44;95576.88;105316;1288;24241;-77
2022/11/22 09:04:41;;;;;;;18.40;13.00;;;;;;;2.15;90.72;95580.23;105222;1304;22854;-77
2022/11/22 09:07:12;;;;;;;19.10;13.50;;;;;;;2.21;90.85;95579.48;105295;1304;22856;-77
2022/11/22 09:09:47;;;;;;;16.20;10.20;;;;;;;2.31;91.29;95584.84;105297;1297;25480;-77
2022/11/22 09:12:18;;;;;;;19.70;12.50;;;;;;;2.49;91.52;95584.91;105275;1296;22471;-77
2022/11/22 09:14:49;;;;;;;17.40;11.80;;;;;;;2.69;91.56;95584.88;105183;1298;25416;-77
2022/11/22 09:17:20;;;;;;;18.90;13.00;;;;;;;2.83;91.50;95584.80;105295;1288;22472;-77
2022/11/22 09:19:52;;;;;;;15.70;11.10;;;;;;;3.07;91.77;95584.18;105265;1302;22519;-77
2022/11/22 09:22:23;;;;;;;15.30;10.60;;;;;;;3.26;91.38;95578.60;105222;1304;22444;-77
2022/11/22 09:24:55;;;;;;;15.20;10.50;;;;;;;3.43;91.38;95577.23;105273;1295;25449;-77
2022/11/22 09:27:26;;;;;;;15.50;10.20;;;;;;;3.62;91.16;95574.19;105365;1288;22500;-77
2022/11/22 09:29:58;;;;;;;14.40;9.90;;;;;;;3.81;90.30;95578.46;105322;1305;22477;-77
2022/11/22 09:32:29;;;;;;;12.20;8.60;;;;;;;3.94;89.61;95582.00;105248;1297;24323;-77
2022/11/22 09:35:02;;;;;;;13.90;9.80;;;;;;;3.99;88.80;95582.01;105231;1293;22673;-77
2022/11/22 09:37:34;;;;;;;12.50;8.10;;;;;;;4.08;88.13;95585.10;105282;1303;22467;-77
2022/11/22 09:40:08;;;;;;;11.40;8.50;;;;;;;4.18;87.98;95581.85;105306;1280;24254;-77
2022/11/22 09:43:02;;;;;;;12.90;9.30;;;;;;;4.26;87.89;95582.27;105347;1304;22471;-77
2022/11/22 09:46:08;;;;;;;12.40;9.00;;;;;;;4.40;88.09;95576.91;105232;1304;22483;-77
2022/11/22 09:49:07;;;;;;;11.80;8.60;;;;;;;4.57;88.08;95576.52;105295;1304;25376;-77
2022/11/22 09:51:47;;;;;;;9.70;6.10;;;;;;;4.65;87.22;95572.16;105233;1297;22508;-77
2022/11/22 09:54:24;;;;;;;5.80;3.80;;;;;;;4.74;86.87;95573.34;105184;1294;24258;-77
2022/11/22 09:57:00;;;;;;;6.70;3.80;;;;;;;4.73;85.17;95569.87;105314;1303;25411;-77
2022/11/22 09:59:36;;;;;;;6.20;4.30;;;;;;;4.62;83.53;95572.58;105290;1303;22521;-77
2022/11/22 10:02:12;;;;;;;7.50;5.40;;;;;;;4.64;83.84;95573.67;105296;1297;22461;-77
2022/11/22 10:04:48;;;;;;;8.40;6.10;;;;;;;4.69;83.30;95574.56;105258;1297;22512;-77
2022/11/22 10:07:24;;;;;;;8.50;5.60;;;;;;;4.68;83.51;95568.73;105304;1297;22555;-77
2022/11/22 10:10:02;;;;;;;10.50;6.40;;;;;;;4.70;83.56;95568.25;105295;1289;22700;-77
2022/11/22 10:12:40;;;;;;;10.50;6.90;;;;;;;4.73;83.55;95567.19;105327;1303;22474;-77
2022/11/22 10:15:23;;;;;;;10.70;7.50;;;;;;;4.79;83.15;95563.57;105175;1291;24253;-77
2022/11/22 10:17:59;;;;;;;11.40;7.90;;;;;;;4.75;82.41;95564.09;105254;1293;22563;-77
2022/11/22 10:20:35;;;;;;;10.60;7.30;;;;;;;4.86;82.68;95562.02;105107;1299;22828;-77
2022/11/22 10:23:15;;;;;;;11.30;7.70;;;;;;;4.94;81.81;95566.26;105284;1281;23893;-77
2022/11/22 10:25:51;;;;;;;12.20;8.80;;;;;;;5.04;82.15;95572.20;105271;1304;22448;-77
2022/11/22 10:28:31;;;;;;;11.90;8.20;;;;;;;5.13;82.19;95567.65;105229;1304;22512;-77
2022/11/22 10:31:11;;;;;;;10.30;6.60;;;;;;;5.20;81.57;95564.48;105273;1274;22490;-77
2022/11/22 10:33:52;;;;;;;10.10;7.20;;;;;;;5.23;80.96;95563.78;105276;1278;22862;-77
2022/11/22 10:36:35;;;;;;;10.90;7.70;;;;;;;5.36;81.14;95564.88;105292;1303;22466;-78
2022/11/22 10:39:30;;;;;;;12.10;7.40;;;;;;;5.45;80.94;95563.77;105320;1295;22506;-78
2022/11/22 10:42:15;;;;;;;11.10;7.20;;;;;;;5.51;80.36;95563.39;105310;1290;22583;-77
2022/11/22 10:44:58;;;;;;;10.80;7.10;;;;;;;5.58;80.56;95558.23;105329;1282;24024;-78
2022/11/22 10:47:43;;;;;;;9.30;6.90;;;;;;;5.64;80.73;95556.11;105323;1295;22629;-77
2022/11/22 10:50:20;;;;;;;9.60;6.60;;;;;;;5.69;80.21;95552.50;105354;1303;25366;-77
2022/11/22 10:53:01;;;;;;;10.50;7.50;;;;;;;5.70;80.26;95555.12;105289;1291;22470;-78
2022/11/22 10:55:40;;;;;;;;;;;;;;;5.74;79.91;95554.46;105156;1291;25248;-77
2022/11/22 10:58:20;;;;;;;10.80;7.10;;;;;;;5.72;80.08;95555.78;105211;1304;22533;-77
2022/11/22 11:01:00;;;;;;;10.60;7.00;;;;;;;5.81;79.70;95555.48;105228;1297;22463;-77
2022/11/22 11:03:36;;;;;;;11.00;7.10;;;;;;;5.87;79.61;95550.12;105289;1288;25468;-77
2022/11/22 11:06:15;;;;;;;20.70;12.00;;;;;;;5.96;79.52;95545.56;105136;1288;22480;-77
2022/11/22 11:08:51;;;;;;;11.20;6.20;;;;;;;6.02;78.45;95542.40;105305;1295;22507;-78
2022/11/22 11:11:24;;;;;;;12.80;7.90;;;;;;;6.02;77.95;95540.19;105254;1304;22468;-77
2022/11/22 11:14:01;;;;;;;9.00;5.90;;;;;;;6.09;77.93;95535.31;105299;1299;23024;-77
2022/11/22 11:16:36;;;;;;;11.30;7.30;;;;;;;6.24;78.29;95539.60;105246;1285;23259;-77
2022/11/22 11:19:19;;;;;;;9.30;6.50;;;;;;;6.41;78.33;95539.77;105243;1280;22782;-77
2022/11/22 11:22:01;;;;;;;9.80;6.20;;;;;;;6.49;78.16;95540.00;105271;1289;22683;-78
2022/11/22 11:24:40;;;;;;;9.80;6.70;;;;;;;6.61;78.07;95542.27;105205;1303;28473;-78
2022/11/22 11:27:13;;;;;;;9.10;6.30;;;;;;;6.60;76.40;95545.75;105309;1284;24948;-78
2022/11/22 11:29:51;;;;;;;9.90;6.50;;;;;;;6.59;77.05;95541.96;105252;1290;22477;-78
2022/11/22 11:32:23;;;;;;;10.00;6.50;;;;;;;6.65;77.01;95547.71;105306;1280;22435;-78
2022/11/22 11:35:01;;;;;;;9.00;6.50;;;;;;;6.80;77.74;95543.02;105297;1287;24055;-77
2022/11/22 11:37:37;;;;;;;9.60;6.30;;;;;;;6.99;78.05;95536.80;105312;1303;22513;-78
2022/11/22 11:40:34;;;;;;;10.10;6.80;;;;;;;7.15;77.91;95532.86;105275;1303;22602;-78
2022/11/22 11:43:24;;;;;;;10.30;6.90;;;;;;;7.17;77.02;95534.99;105307;1303;22435;-78
2022/11/22 11:45:55;;;;;;;10.10;7.10;;;;;;;7.13;75.23;95532.37;105372;1296;22719;-78
2022/11/22 11:48:36;;;;;;;8.60;6.10;;;;;;;6.99;73.92;95530.73;105311;1295;22525;-78
2022/11/22 11:51:37;;;;;;;11.10;8.40;;;;;;;6.87;73.49;95530.91;105249;1289;22484;-78
2022/11/22 11:54:15;;;;;;;10.40;6.60;;;;;;;6.85;74.20;95525.04;105258;1288;24002;-77
2022/11/22 11:56:48;;;;;;;11.40;7.60;;;;;;;6.93;74.91;95516.38;105349;1288;22465;-78